createdAt,value
2023-02-25T00:02:02.751Z,98162.02
2023-02-25T00:04:32.525Z,98156.73
2023-02-25T00:07:01.564Z,98155.06
2023-02-25T00:09:30.444Z,98159.10
2023-02-25T00:11:58.882Z,98154.42
2023-02-25T00:14:29.828Z,98156.16
2023-02-25T00:16:58.310Z,98156.39
2023-02-25T00:19:27.089Z,98151.98
2023-02-25T00:21:55.856Z,98154.27
2023-02-25T00:24:24.655Z,98154.91
2023-02-25T00:26:53.122Z,98147.56
2023-02-25T00:29:22.198Z,98142.13
2023-02-25T00:31:50.771Z,98138.73
2023-02-25T00:34:19.437Z,98132.24
2023-02-25T00:36:48.250Z,98129.61
2023-02-25T00:39:16.650Z,98125.95
2023-02-25T00:41:45.148Z,98125.08
2023-02-25T00:44:13.452Z,98126.37
2023-02-25T00:46:41.834Z,98119.08
2023-02-25T00:49:10.298Z,98117.04
2023-02-25T00:51:38.855Z,98111.47
2023-02-25T00:54:07.245Z,98103.20
2023-02-25T00:56:36.247Z,98107.68
2023-02-25T00:59:04.554Z,98111.30
2023-02-25T01:01:33.752Z,98104.08
2023-02-25T01:04:02.401Z,98099.30
2023-02-25T01:06:33.286Z,98092.76
2023-02-25T01:09:02.568Z,98086.50
2023-02-25T01:11:34.640Z,98086.96
2023-02-25T01:14:09.047Z,98089.71
2023-02-25T01:16:38.432Z,98085.39
2023-02-25T01:19:15.276Z,98075.25
2023-02-25T01:21:48.176Z,98067.61
2023-02-25T01:24:23.326Z,98065.38
2023-02-25T01:26:55.831Z,98062.02
2023-02-25T01:29:29.625Z,98060.41
2023-02-25T01:32:01.276Z,98052.75
2023-02-25T01:34:30.598Z,98053.66
2023-02-25T01:36:59.479Z,98049.81
2023-02-25T01:39:29.132Z,98048.55
2023-02-25T01:41:58.806Z,98051.33
2023-02-25T01:44:53.058Z,98055.48
2023-02-25T01:47:21.357Z,98054.10
2023-02-25T01:49:49.765Z,98051.72
2023-02-25T01:52:25.642Z,98052.65
2023-02-25T01:54:57.945Z,98049.35
2023-02-25T01:57:26.456Z,98049.87
2023-02-25T01:59:55.664Z,98050.54
2023-02-25T02:02:27.537Z,98045.20
2023-02-25T02:04:56.115Z,98047.95
2023-02-25T02:07:27.277Z,98047.27
2023-02-25T02:09:59.971Z,98051.84
2023-02-25T02:12:40.133Z,98042.54
2023-02-25T02:15:13.980Z,98050.10
2023-02-25T02:17:53.323Z,98052.27
2023-02-25T02:20:27.377Z,98045.95
2023-02-25T02:23:22.752Z,98042.22
2023-02-25T02:26:10.471Z,98039.55
2023-02-25T02:29:17.124Z,98044.20
2023-02-25T02:32:05.100Z,98041.70
2023-02-25T02:34:52.761Z,98039.90
2023-02-25T02:37:50.124Z,98043.45
2023-02-25T02:40:52.564Z,98035.77
2023-02-25T02:43:39.090Z,98034.17
2023-02-25T02:46:28.154Z,98035.63
2023-02-25T02:49:05.876Z,98036.63
2023-02-25T02:52:15.150Z,98033.39
2023-02-25T02:54:49.738Z,98032.59
2023-02-25T02:57:21.698Z,98040.63
2023-02-25T03:00:00.400Z,98041.17
2023-02-25T03:02:36.927Z,98042.63
2023-02-25T03:05:11.562Z,98042.01
2023-02-25T03:07:58.198Z,98047.85
2023-02-25T03:10:26.855Z,98042.36
2023-02-25T03:12:55.352Z,98044.91
2023-02-25T03:15:26.906Z,98041.96
2023-02-25T03:18:02.535Z,98041.20
2023-02-25T03:20:40.324Z,98041.80
2023-02-25T03:23:15.733Z,98046.08
2023-02-25T03:25:53.769Z,98048.44
2023-02-25T03:28:32.035Z,98049.93
2023-02-25T03:31:16.447Z,98048.08
2023-02-25T03:34:12.748Z,98038.39
2023-02-25T03:36:51.147Z,98045.21
2023-02-25T03:39:27.006Z,98042.08
2023-02-25T03:41:59.549Z,98045.46
2023-02-25T03:44:42.510Z,98049.88
2023-02-25T03:47:13.645Z,98047.82
2023-02-25T03:50:02.926Z,98038.58
2023-02-25T03:52:31.518Z,98043.96
2023-02-25T03:55:00.044Z,98040.73
2023-02-25T03:57:38.610Z,98038.70
2023-02-25T04:00:31.451Z,98040.10
2023-02-25T04:03:00.567Z,98035.30
2023-02-25T04:05:28.920Z,98030.09
2023-02-25T04:07:59.638Z,98035.98
2023-02-25T04:10:28.291Z,98036.05
2023-02-25T04:12:56.652Z,98034.98
2023-02-25T04:15:27.663Z,98033.17
2023-02-25T04:17:56.024Z,98029.84
2023-02-25T04:20:24.435Z,98030.30
2023-02-25T04:22:52.756Z,98028.55
2023-02-25T04:25:21.497Z,98025.73
2023-02-25T04:27:49.907Z,98028.59
2023-02-25T04:30:18.825Z,98028.06
2023-02-25T04:32:47.330Z,98023.65
2023-02-25T04:35:15.912Z,98019.71
2023-02-25T04:37:44.443Z,98019.68
2023-02-25T04:40:21.328Z,98017.29
2023-02-25T04:42:50.458Z,98013.22
2023-02-25T04:45:20.425Z,98008.15
2023-02-25T04:47:48.725Z,98005.69
2023-02-25T04:50:17.211Z,97998.66
2023-02-25T04:52:45.555Z,97991.38
2023-02-25T04:55:13.955Z,97992.13
2023-02-25T04:57:42.722Z,97987.80
2023-02-25T05:00:29.750Z,97988.40
2023-02-25T05:02:58.957Z,97987.14
2023-02-25T05:05:27.383Z,97983.93
2023-02-25T05:07:55.694Z,97979.69
2023-02-25T05:10:24.135Z,97983.31
2023-02-25T05:12:52.456Z,97982.41
2023-02-25T05:15:20.917Z,97983.86
2023-02-25T05:17:49.382Z,97984.63
2023-02-25T05:20:17.860Z,97983.14
2023-02-25T05:22:46.224Z,97979.77
2023-02-25T05:25:15.081Z,97981.15
2023-02-25T05:27:43.552Z,97980.30
2023-02-25T05:30:12.776Z,97980.94
2023-02-25T05:32:41.257Z,97980.20
2023-02-25T05:35:10.177Z,97981.84
2023-02-25T05:37:38.541Z,97988.30
2023-02-25T05:40:09.805Z,97988.61
2023-02-25T05:42:38.199Z,97988.77
2023-02-25T05:45:10.089Z,97989.17
2023-02-25T05:47:38.438Z,97987.84
2023-02-25T05:50:08.119Z,97993.60
2023-02-25T05:52:36.468Z,97992.02
2023-02-25T05:55:05.443Z,97993.14
2023-02-25T05:57:33.782Z,97996.17
2023-02-25T06:00:02.275Z,97992.19
2023-02-25T06:02:33.453Z,97996.44
2023-02-25T06:05:02.690Z,97996.29
2023-02-25T06:07:33.326Z,97998.41
2023-02-25T06:10:02.175Z,98000.16
2023-02-25T06:12:33.690Z,98006.79
2023-02-25T06:15:02.015Z,98009.60
2023-02-25T06:17:30.453Z,98015.36
2023-02-25T06:19:58.861Z,98014.84
2023-02-25T06:22:27.255Z,98014.21
2023-02-25T06:24:55.549Z,98019.59
2023-02-25T06:27:23.890Z,98014.92
2023-02-25T06:29:52.253Z,98019.76
2023-02-25T06:32:20.891Z,98014.35
2023-02-25T06:34:49.548Z,98018.68
2023-02-25T06:37:18.352Z,98024.08
2023-02-25T06:39:46.700Z,98024.44
2023-02-25T06:42:15.123Z,98027.04
2023-02-25T06:44:43.565Z,98028.05
2023-02-25T06:47:24.486Z,98030.00
2023-02-25T06:49:57.202Z,98037.82
2023-02-25T06:52:25.925Z,98036.52
2023-02-25T06:54:54.279Z,98038.27
2023-02-25T06:57:22.598Z,98042.34
2023-02-25T06:59:51.191Z,98057.98
2023-02-25T07:02:19.956Z,98056.25
2023-02-25T07:04:48.599Z,98050.15
2023-02-25T07:07:17.354Z,98059.44
2023-02-25T07:09:45.660Z,98053.77
2023-02-25T07:12:14.027Z,98057.58
2023-02-25T07:14:42.348Z,98066.37
2023-02-25T07:17:10.861Z,98064.82
2023-02-25T07:19:39.295Z,98068.00
2023-02-25T07:22:09.940Z,98063.13
2023-02-25T07:24:38.261Z,98064.11
2023-02-25T07:27:06.586Z,98066.78
2023-02-25T07:29:34.959Z,98066.74
2023-02-25T07:32:03.727Z,98065.21
2023-02-25T07:34:32.214Z,98067.65
2023-02-25T07:37:00.757Z,98070.08
2023-02-25T07:39:29.111Z,98067.06
2023-02-25T07:41:57.405Z,98066.52
2023-02-25T07:44:25.827Z,98070.98
2023-02-25T07:46:54.122Z,98064.30
2023-02-25T07:49:22.533Z,98066.48
2023-02-25T07:51:50.973Z,98062.98
2023-02-25T07:54:21.320Z,98069.42
2023-02-25T07:56:52.306Z,98074.05
2023-02-25T07:59:20.708Z,98072.87
2023-02-25T08:01:49.108Z,98071.58
2023-02-25T08:04:17.517Z,98074.83
2023-02-25T08:06:47.132Z,98074.52
2023-02-25T08:09:16.014Z,98070.45
2023-02-25T08:11:44.834Z,98069.64
2023-02-25T08:14:13.158Z,98067.59
2023-02-25T08:21:07.623Z,98076.61
2023-02-25T08:23:36.147Z,98076.14
2023-02-25T08:26:05.795Z,98067.13
2023-02-25T08:28:37.009Z,98070.11
2023-02-25T08:31:08.688Z,98070.42
2023-02-25T08:33:39.529Z,98073.33
2023-02-25T08:36:27.294Z,98076.80
2023-02-25T08:38:59.655Z,98071.23
2023-02-25T08:41:29.397Z,98075.54
2023-02-25T08:44:00.542Z,98079.29
2023-02-25T08:46:32.117Z,98086.83
2023-02-25T08:49:01.302Z,98095.48
2023-02-25T08:51:34.586Z,98088.43
2023-02-25T08:54:11.976Z,98089.34
2023-02-25T08:56:48.677Z,98086.01
2023-02-25T08:59:17.443Z,98094.46
2023-02-25T09:01:47.465Z,98108.29
2023-02-25T09:04:25.747Z,98108.29
2023-02-25T09:06:54.658Z,98099.80
2023-02-25T09:09:23.246Z,98105.77
2023-02-25T09:11:53.874Z,98114.92
2023-02-25T09:14:22.998Z,98115.70
2023-02-25T09:17:00.243Z,98110.88
2023-02-25T09:19:28.939Z,98108.38
2023-02-25T09:21:57.336Z,98120.21
2023-02-25T09:24:32.439Z,98122.41
2023-02-25T09:27:09.613Z,98121.23
2023-02-25T09:29:41.769Z,98115.94
2023-02-25T09:32:20.142Z,98120.34
2023-02-25T09:34:51.368Z,98131.60
2023-02-25T09:37:29.380Z,98126.67
2023-02-25T09:40:09.709Z,98135.86
2023-02-25T09:43:06.426Z,98139.48
2023-02-25T09:45:36.726Z,98146.53
2023-02-25T09:48:36.531Z,98139.23
2023-02-25T09:51:20.788Z,98143.38
2023-02-25T09:54:19.830Z,98141.55
2023-02-25T09:56:52.436Z,98150.75
2023-02-25T09:59:42.688Z,98169.35
2023-02-25T10:02:41.224Z,98149.65
2023-02-25T10:05:39.462Z,98158.27
2023-02-25T10:08:23.548Z,98165.04
2023-02-25T10:10:59.171Z,98180.15
2023-02-25T10:13:59.338Z,98166.61
2023-02-25T10:17:14.509Z,98173.42
2023-02-25T10:20:27.313Z,98181.09
2023-02-25T10:23:12.800Z,98185.95
2023-02-25T10:26:00.670Z,98177.16
2023-02-25T10:28:41.274Z,98182.35
2023-02-25T10:31:20.944Z,98182.91
2023-02-25T10:33:57.322Z,98176.45
2023-02-25T10:36:44.554Z,98182.84
2023-02-25T10:39:16.041Z,98189.07
2023-02-25T10:41:49.384Z,98196.77
2023-02-25T10:44:18.189Z,98188.58
2023-02-25T10:47:08.357Z,98194.46
2023-02-25T10:49:38.669Z,98195.60
2023-02-25T10:52:18.615Z,98194.93
2023-02-25T10:54:54.656Z,98202.52
2023-02-25T10:57:37.001Z,98215.52
2023-02-25T11:00:32.340Z,98206.54
2023-02-25T11:03:04.363Z,98196.29
2023-02-25T11:05:41.720Z,98207.06
2023-02-25T11:08:33.447Z,98204.86
2023-02-25T11:11:18.480Z,98225.45
2023-02-25T11:14:00.806Z,98214.44
2023-02-25T11:16:38.095Z,98219.45
2023-02-25T11:19:38.787Z,98214.77
2023-02-25T11:22:40.172Z,98228.20
2023-02-25T11:25:20.350Z,98224.69
2023-02-25T11:27:58.753Z,98220.46
2023-02-25T11:31:01.909Z,98224.41
2023-02-25T11:33:40.050Z,98230.83
2023-02-25T11:36:12.519Z,98236.06
2023-02-25T11:38:44.597Z,98239.76
2023-02-25T11:41:23.891Z,98238.91
2023-02-25T11:43:55.357Z,98233.77
2023-02-25T11:46:33.951Z,98240.48
2023-02-25T11:49:15.497Z,98230.22
2023-02-25T11:51:55.013Z,98234.37
2023-02-25T11:55:04.428Z,98238.71
2023-02-25T11:57:51.932Z,98237.23
2023-02-25T12:00:39.062Z,98241.41
2023-02-25T12:03:32.666Z,98237.99
2023-02-25T12:06:22.194Z,98244.08
2023-02-25T12:09:18.624Z,98238.90
2023-02-25T12:12:33.578Z,98253.91
2023-02-25T12:15:23.985Z,98260.65
2023-02-25T12:18:16.892Z,98258.40
2023-02-25T12:21:26.524Z,98256.52
2023-02-25T12:24:17.060Z,98256.67
2023-02-25T12:27:18.743Z,98258.24
2023-02-25T12:30:27.832Z,98259.30
2023-02-25T12:33:14.636Z,98262.06
2023-02-25T12:36:31.213Z,98267.61
2023-02-25T12:39:30.779Z,98271.08
2023-02-25T12:42:31.911Z,98284.56
2023-02-25T12:45:29.744Z,98279.70
2023-02-25T12:48:26.446Z,98283.02
2023-02-25T12:51:49.626Z,98292.40
2023-02-25T12:54:54.539Z,98295.78
2023-02-25T12:57:50.782Z,98305.02
2023-02-25T13:00:42.789Z,98305.86
2023-02-25T13:04:03.765Z,98314.11
2023-02-25T13:06:51.037Z,98319.30
2023-02-25T13:09:55.269Z,98325.48
2023-02-25T13:13:17.612Z,98331.95
2023-02-25T13:16:04.564Z,98334.14
2023-02-25T13:18:54.779Z,98346.02
2023-02-25T13:22:00.760Z,98345.66
2023-02-25T13:24:45.080Z,98340.04
2023-02-25T13:27:39.731Z,98349.08
2023-02-25T13:30:46.518Z,98353.13
2023-02-25T13:33:57.956Z,98354.09
2023-02-25T13:37:01.724Z,98354.83
2023-02-25T13:40:07.511Z,98359.84
2023-02-25T13:43:09.169Z,98371.29
2023-02-25T13:45:49.669Z,98373.57
2023-02-25T13:49:05.305Z,98376.89
2023-02-25T13:51:56.664Z,98378.66
2023-02-25T13:54:48.618Z,98379.41
2023-02-25T13:58:07.986Z,98382.13
2023-02-25T14:00:51.462Z,98392.92
2023-02-25T14:04:05.910Z,98395.60
2023-02-25T14:07:20.029Z,98397.13
2023-02-25T14:10:50.874Z,98418.61
2023-02-25T14:13:45.174Z,98427.84
2023-02-25T14:17:01.070Z,98424.14
2023-02-25T14:19:38.347Z,98430.52
2023-02-25T14:22:48.505Z,98439.27
2023-02-25T14:25:25.855Z,98432.47
2023-02-25T14:28:41.047Z,98438.72
2023-02-25T14:31:31.987Z,98444.05
2023-02-25T14:34:56.306Z,98445.25
2023-02-25T14:37:42.972Z,98453.10
2023-02-25T14:40:40.795Z,98453.91
2023-02-25T14:43:29.779Z,98452.14
2023-02-25T14:46:07.400Z,98459.95
2023-02-25T14:48:46.413Z,98460.15
2023-02-25T14:52:01.281Z,98467.85
2023-02-25T14:54:47.797Z,98472.20
2023-02-25T14:57:39.922Z,98479.87
2023-02-25T15:00:38.708Z,98477.27
2023-02-25T15:03:54.697Z,98484.20
2023-02-25T15:06:41.903Z,98492.82
2023-02-25T15:09:32.301Z,98504.17
2023-02-25T15:12:33.194Z,98502.43
2023-02-25T15:15:27.915Z,98507.67
2023-02-25T15:18:28.264Z,98510.64
2023-02-25T15:20:57.073Z,98519.30
2023-02-25T15:23:51.359Z,98515.36
2023-02-25T15:26:48.679Z,98526.80
2023-02-25T15:29:43.008Z,98530.67
2023-02-25T15:32:22.358Z,98532.65
2023-02-25T15:34:56.884Z,98533.88
2023-02-25T15:37:54.606Z,98541.10
2023-02-25T15:40:24.359Z,98538.56
2023-02-25T15:42:56.100Z,98541.66
2023-02-25T15:45:37.148Z,98550.20
2023-02-25T15:48:08.466Z,98553.06
2023-02-25T15:50:52.000Z,98557.91
2023-02-25T15:53:24.743Z,98565.50
2023-02-25T15:56:05.652Z,98571.47
2023-02-25T15:58:45.538Z,98576.12
2023-02-25T16:01:42.601Z,98579.34
2023-02-25T16:04:50.165Z,98584.58
2023-02-25T16:07:31.158Z,98593.63
2023-02-25T16:10:09.075Z,98596.61
2023-02-25T16:12:41.727Z,98599.31
2023-02-25T16:15:37.841Z,98603.25
2023-02-25T16:18:24.340Z,98612.15
2023-02-25T16:20:59.836Z,98617.30
2023-02-25T16:23:29.929Z,98620.75
2023-02-25T16:26:30.412Z,98630.48
2023-02-25T16:29:43.002Z,98625.89
2023-02-25T16:32:38.765Z,98634.34
2023-02-25T16:35:30.180Z,98636.16
2023-02-25T16:38:22.745Z,98641.58
2023-02-25T16:40:52.194Z,98644.86
2023-02-25T16:43:32.328Z,98655.98
2023-02-25T16:46:08.219Z,98661.95
2023-02-25T16:49:02.354Z,98662.27
2023-02-25T16:51:41.452Z,98667.35
2023-02-25T16:54:19.961Z,98668.77
2023-02-25T16:56:55.606Z,98675.36
2023-02-25T16:59:24.310Z,98683.84
2023-02-25T17:02:17.609Z,98691.11
2023-02-25T17:04:53.333Z,98697.61
2023-02-25T17:07:27.961Z,98700.85
2023-02-25T17:10:03.016Z,98704.93
2023-02-25T17:12:45.868Z,98712.43
2023-02-25T17:15:35.771Z,98719.42
2023-02-25T17:18:24.614Z,98728.84
2023-02-25T17:21:08.558Z,98732.67
2023-02-25T17:23:40.817Z,98740.87
2023-02-25T17:26:14.974Z,98738.55
2023-02-25T17:28:47.337Z,98749.45
2023-02-25T17:31:20.959Z,98742.86
2023-02-25T17:34:00.984Z,98749.51
2023-02-25T17:36:36.616Z,98751.84
2023-02-25T17:39:18.176Z,98751.90
2023-02-25T17:41:47.974Z,98760.92
2023-02-25T17:44:47.340Z,98758.05
2023-02-25T17:47:26.802Z,98767.11
2023-02-25T17:49:56.533Z,98768.98
2023-02-25T17:52:30.176Z,98776.96
2023-02-25T17:55:22.192Z,98781.63
2023-02-25T17:57:59.884Z,98787.67
2023-02-25T18:00:35.538Z,98792.88
2023-02-25T18:03:24.576Z,98792.75
2023-02-25T18:06:02.704Z,98804.83
2023-02-25T18:08:50.307Z,98808.19
2023-02-25T18:11:29.888Z,98809.77
2023-02-25T18:14:02.240Z,98815.77
2023-02-25T18:16:44.755Z,98818.19
2023-02-25T18:19:36.818Z,98818.74
2023-02-25T18:22:24.247Z,98824.46
2023-02-25T18:24:57.494Z,98825.61
2023-02-25T18:27:37.497Z,98826.23
2023-02-25T18:30:12.136Z,98829.97
2023-02-25T18:32:40.751Z,98829.95
2023-02-25T18:35:09.732Z,98832.78
2023-02-25T18:37:38.685Z,98839.44
2023-02-25T18:40:14.970Z,98842.10
2023-02-25T18:42:44.092Z,98845.53
2023-02-25T18:45:21.056Z,98845.11
2023-02-25T18:47:50.790Z,98847.52
2023-02-25T18:50:20.351Z,98846.30
2023-02-25T18:52:49.000Z,98852.41
2023-02-25T18:55:26.057Z,98857.16
2023-02-25T18:57:55.169Z,98865.83
2023-02-25T19:00:27.383Z,98865.93
2023-02-25T19:03:00.989Z,98873.14
2023-02-25T19:05:29.915Z,98880.15
2023-02-25T19:07:58.321Z,98892.36
2023-02-25T19:10:31.740Z,98891.77
2023-02-25T19:13:15.510Z,98891.21
2023-02-25T19:15:44.093Z,98897.52
2023-02-25T19:18:14.988Z,98902.98
2023-02-25T19:20:44.534Z,98908.45
2023-02-25T19:23:16.339Z,98913.04
2023-02-25T19:25:47.810Z,98921.84
2023-02-25T19:28:16.407Z,98925.58
2023-02-25T19:30:44.975Z,98933.29
2023-02-25T19:33:14.361Z,98933.89
2023-02-25T19:35:43.718Z,98936.45
2023-02-25T19:38:17.108Z,98938.66
2023-02-25T19:40:47.980Z,98945.01
2023-02-25T19:43:17.745Z,98953.37
2023-02-25T19:45:47.253Z,98954.07
2023-02-25T19:48:15.774Z,98955.44
2023-02-25T19:50:44.121Z,98964.65
2023-02-25T19:53:12.878Z,98964.47
2023-02-25T19:55:43.956Z,98966.37
2023-02-25T19:58:12.340Z,98970.19
2023-02-25T20:00:45.984Z,98972.93
2023-02-25T20:03:15.480Z,98969.64
2023-02-25T20:05:44.843Z,98971.15
2023-02-25T20:08:13.396Z,98971.45
2023-02-25T20:10:43.771Z,98974.74
2023-02-25T20:13:12.195Z,98985.09
2023-02-25T20:15:40.657Z,98990.79
2023-02-25T20:18:09.407Z,98995.61
2023-02-25T20:20:42.008Z,99003.88
2023-02-25T20:23:10.810Z,99000.95
2023-02-25T20:25:39.160Z,99004.55
2023-02-25T20:28:07.465Z,99010.61
2023-02-25T20:30:35.900Z,99015.47
2023-02-25T20:33:04.848Z,99015.09
2023-02-25T20:35:33.896Z,99019.42
2023-02-25T20:38:23.163Z,99026.53
2023-02-25T20:40:52.315Z,99029.41
2023-02-25T20:43:21.831Z,99033.16
2023-02-25T20:45:50.623Z,99040.08
2023-02-25T20:48:28.823Z,99045.98
2023-02-25T20:50:58.815Z,99049.11
2023-02-25T20:53:27.453Z,99053.91
2023-02-25T20:55:57.463Z,99059.96
2023-02-25T20:58:25.977Z,99062.35
2023-02-25T21:00:54.462Z,99068.22
2023-02-25T21:03:22.834Z,99071.32
2023-02-25T21:05:51.353Z,99069.95
2023-02-25T21:08:19.730Z,99071.00
2023-02-25T21:10:48.081Z,99078.91
2023-02-25T21:13:16.619Z,99081.36
2023-02-25T21:15:45.395Z,99084.02
2023-02-25T21:18:13.771Z,99082.52
2023-02-25T21:20:42.364Z,99085.49
2023-02-25T21:23:11.417Z,99087.31
2023-02-25T21:25:40.012Z,99094.14
2023-02-25T21:28:08.425Z,99096.49
2023-02-25T21:30:38.165Z,99095.90
2023-02-25T21:33:08.285Z,99097.94
2023-02-25T21:35:36.766Z,99102.54
2023-02-25T21:38:05.098Z,99098.55
2023-02-25T21:40:34.264Z,99102.67
2023-02-25T21:43:02.586Z,99100.83
2023-02-25T21:45:30.921Z,99107.23
2023-02-25T21:47:59.354Z,99106.67
2023-02-25T21:50:27.675Z,99109.88
2023-02-25T21:52:56.542Z,99112.30
2023-02-25T21:55:25.597Z,99121.62
2023-02-25T21:57:53.983Z,99124.61
2023-02-25T22:00:23.021Z,99130.34
2023-02-25T22:02:51.411Z,99134.15
2023-02-25T22:05:20.484Z,99132.82
2023-02-25T22:07:48.827Z,99138.52
2023-02-25T22:10:17.680Z,99140.61
2023-02-25T22:12:46.018Z,99143.36
2023-02-25T22:15:14.542Z,99151.82
2023-02-25T22:17:42.875Z,99153.91
2023-02-25T22:20:13.019Z,99156.71
2023-02-25T22:22:41.433Z,99157.79
2023-02-25T22:25:09.915Z,99159.23
2023-02-25T22:27:38.347Z,99161.98
2023-02-25T22:30:08.815Z,99163.84
2023-02-25T22:32:37.902Z,99169.20
2023-02-25T22:35:07.775Z,99173.54
2023-02-25T22:37:36.113Z,99174.27
2023-02-25T22:40:05.104Z,99169.92
2023-02-25T22:42:33.485Z,99173.61
2023-02-25T22:45:01.947Z,99177.06
2023-02-25T22:47:30.759Z,99180.48
2023-02-25T22:49:59.128Z,99185.81
2023-02-25T22:52:27.571Z,99195.33
2023-02-25T22:54:55.919Z,99196.81
2023-02-25T22:57:24.288Z,99204.67
2023-02-25T22:59:52.751Z,99208.36
2023-02-25T23:02:21.054Z,99204.16
2023-02-25T23:04:49.449Z,99209.86
2023-02-25T23:07:17.929Z,99213.23
2023-02-25T23:09:46.349Z,99213.66
2023-02-25T23:12:16.763Z,99219.87
2023-02-25T23:14:45.069Z,99219.25
2023-02-25T23:17:13.362Z,99225.54
2023-02-25T23:19:41.702Z,99227.16
2023-02-25T23:22:10.023Z,99229.95
2023-02-25T23:24:38.329Z,99233.27
2023-02-25T23:27:06.620Z,99240.88
2023-02-25T23:29:34.922Z,99241.14
2023-02-25T23:32:03.388Z,99245.32
2023-02-25T23:34:31.925Z,99249.50
2023-02-25T23:37:00.633Z,99252.20
2023-02-25T23:39:28.946Z,99259.38
2023-02-25T23:41:57.361Z,99259.48
2023-02-25T23:44:25.942Z,99264.23
2023-02-25T23:46:54.482Z,99265.67
2023-02-25T23:49:22.897Z,99275.06
2023-02-25T23:51:51.388Z,99272.70
2023-02-25T23:54:22.385Z,99275.56
2023-02-25T23:56:50.918Z,99276.84
2023-02-25T23:59:23.429Z,99277.05
